sensor_id;sensor_type;location;lat;lon;timestamp;pressure;altitude;pressure_sealevel;temperature;humidity
55418;BME280;41287;47.554;7.844;2023-10-13T00:01:25;98207.31;;;21.28;52.40
55418;BME280;41287;47.554;7.844;2023-10-13T00:03:53;98206.16;;;21.29;52.34
55418;BME280;41287;47.554;7.844;2023-10-13T00:06:19;98208.09;;;21.28;52.40
55418;BME280;41287;47.554;7.844;2023-10-13T00:08:45;98207.31;;;21.28;52.38
55418;BME280;41287;47.554;7.844;2023-10-13T00:11:15;98207.31;;;21.28;52.40
55418;BME280;41287;47.554;7.844;2023-10-13T00:13:41;98203.78;;;21.27;52.27
55418;BME280;41287;47.554;7.844;2023-10-13T00:16:18;98208.88;;;21.29;52.47
55418;BME280;41287;47.554;7.844;2023-10-13T00:18:49;98210.84;;;21.28;52.40
55418;BME280;41287;47.554;7.844;2023-10-13T00:21:16;98196.41;;;21.28;52.34
55418;BME280;41287;47.554;7.844;2023-10-13T00:23:56;98200.28;;;21.27;52.46
55418;BME280;41287;47.554;7.844;2023-10-13T00:26:23;98203.44;;;21.29;52.37
55418;BME280;41287;47.554;7.844;2023-10-13T00:28:55;98200.97;;;21.24;52.71
55418;BME280;41287;47.554;7.844;2023-10-13T00:31:26;98196.03;;;21.29;52.45
55418;BME280;41287;47.554;7.844;2023-10-13T00:33:57;98199.94;;;21.28;52.45
55418;BME280;41287;47.554;7.844;2023-10-13T00:36:28;98194.47;;;21.28;52.30
55418;BME280;41287;47.554;7.844;2023-10-13T00:38:57;98201.06;;;21.27;52.38
55418;BME280;41287;47.554;7.844;2023-10-13T00:41:22;98203.78;;;21.27;52.59
55418;BME280;41287;47.554;7.844;2023-10-13T00:44:09;98206.16;;;21.29;52.33
55418;BME280;41287;47.554;7.844;2023-10-13T00:46:35;98196.41;;;21.28;52.39
55418;BME280;41287;47.554;7.844;2023-10-13T00:49:04;98196.41;;;21.28;52.48
55418;BME280;41287;47.554;7.844;2023-10-13T00:51:30;98199.13;;;21.28;52.47
55418;BME280;41287;47.554;7.844;2023-10-13T00:54:13;98199.13;;;21.28;52.61
55418;BME280;41287;47.554;7.844;2023-10-13T00:56:43;98203.78;;;21.27;52.55
55418;BME280;41287;47.554;7.844;2023-10-13T00:59:18;98204.59;;;21.28;52.50
55418;BME280;41287;47.554;7.844;2023-10-13T01:01:48;98196.41;;;21.28;52.53
55418;BME280;41287;47.554;7.844;2023-10-13T01:04:19;98190.16;;;21.27;52.54
55418;BME280;41287;47.554;7.844;2023-10-13T01:06:45;98188.25;;;21.28;52.56
55418;BME280;41287;47.554;7.844;2023-10-13T01:09:11;98182.78;;;21.28;52.60
55418;BME280;41287;47.554;7.844;2023-10-13T01:11:49;98182.78;;;21.28;52.43
55418;BME280;41287;47.554;7.844;2023-10-13T01:14:20;98183.59;;;21.28;52.49
55418;BME280;41287;47.554;7.844;2023-10-13T01:16:46;98176.16;;;21.29;52.30
55418;BME280;41287;47.554;7.844;2023-10-13T01:19:13;98175.41;;;21.28;52.30
55418;BME280;41287;47.554;7.844;2023-10-13T01:21:41;98170.28;;;21.27;52.42
55418;BME280;41287;47.554;7.844;2023-10-13T01:24:09;98178.13;;;21.28;52.52
55418;BME280;41287;47.554;7.844;2023-10-13T01:26:35;98186.31;;;21.28;52.48
55418;BME280;41287;47.554;7.844;2023-10-13T01:29:04;98168.38;;;21.27;52.45
55418;BME280;41287;47.554;7.844;2023-10-13T01:31:42;98180.84;;;21.28;52.53
55418;BME280;41287;47.554;7.844;2023-10-13T01:34:16;98173.03;;;21.27;52.28
55418;BME280;41287;47.554;7.844;2023-10-13T01:36:56;98164.06;;;21.26;52.31
55418;BME280;41287;47.554;7.844;2023-10-13T01:39:24;98172.69;;;21.28;52.46
55418;BME280;41287;47.554;7.844;2023-10-13T01:41:54;98161.78;;;21.28;52.40
55418;BME280;41287;47.554;7.844;2023-10-13T01:44:23;98166.44;;;21.28;52.64
55418;BME280;41287;47.554;7.844;2023-10-13T01:46:48;98165.63;;;21.27;52.48
55418;BME280;41287;47.554;7.844;2023-10-13T01:49:14;98169.97;;;21.28;52.62
55418;BME280;41287;47.554;7.844;2023-10-13T01:51:42;98157.47;;;21.27;52.57
55418;BME280;41287;47.554;7.844;2023-10-13T01:54:08;98161.78;;;21.28;52.53
55418;BME280;41287;47.554;7.844;2023-10-13T01:56:38;98161.78;;;21.28;52.52
55418;BME280;41287;47.554;7.844;2023-10-13T01:59:10;98151.63;;;21.29;52.23
55418;BME280;41287;47.554;7.844;2023-10-13T02:01:35;98148.16;;;21.28;52.55
55418;BME280;41287;47.554;7.844;2023-10-13T02:04:01;98150.88;;;21.28;52.44
55418;BME280;41287;47.554;7.844;2023-10-13T02:06:30;98156.31;;;21.28;52.35
55418;BME280;41287;47.554;7.844;2023-10-13T02:09:05;98152.00;;;21.27;52.38
55418;BME280;41287;47.554;7.844;2023-10-13T02:11:41;98158.25;;;21.28;52.59
55418;BME280;41287;47.554;7.844;2023-10-13T02:14:10;98156.56;;;21.23;52.50
55418;BME280;41287;47.554;7.844;2023-10-13T02:16:36;98152.44;;;21.29;52.39
55418;BME280;41287;47.554;7.844;2023-10-13T02:19:02;98162.53;;;21.29;52.31
55418;BME280;41287;47.554;7.844;2023-10-13T02:21:31;98155.53;;;21.28;52.45
55418;BME280;41287;47.554;7.844;2023-10-13T02:23:58;98156.31;;;21.28;52.62
55418;BME280;41287;47.554;7.844;2023-10-13T02:26:32;98152.00;;;21.27;52.52
55418;BME280;41287;47.554;7.844;2023-10-13T02:29:04;98138.38;;;21.27;52.39
55418;BME280;41287;47.554;7.844;2023-10-13T02:31:35;98138.38;;;21.27;52.16
55418;BME280;41287;47.554;7.844;2023-10-13T02:34:00;98138.38;;;21.27;52.66
55418;BME280;41287;47.554;7.844;2023-10-13T02:36:28;98141.91;;;21.28;52.64
55418;BME280;41287;47.554;7.844;2023-10-13T02:39:04;98143.03;;;21.27;52.42
55418;BME280;41287;47.554;7.844;2023-10-13T02:41:34;98139.97;;;21.28;52.39
55418;BME280;41287;47.554;7.844;2023-10-13T02:44:02;98128.28;;;21.28;52.39
55418;BME280;41287;47.554;7.844;2023-10-13T02:46:31;98139.19;;;21.28;52.46
55418;BME280;41287;47.554;7.844;2023-10-13T02:49:00;98131.81;;;21.28;52.31
55418;BME280;41287;47.554;7.844;2023-10-13T02:51:27;98131.34;;;21.26;52.45
55418;BME280;41287;47.554;7.844;2023-10-13T02:54:04;98128.28;;;21.28;52.52
55418;BME280;41287;47.554;7.844;2023-10-13T02:56:37;98126.34;;;21.28;52.42
55418;BME280;41287;47.554;7.844;2023-10-13T02:59:03;98132.16;;;21.27;52.34
55418;BME280;41287;47.554;7.844;2023-10-13T03:01:34;98123.16;;;21.26;52.50
55418;BME280;41287;47.554;7.844;2023-10-13T03:04:03;98132.94;;;21.27;52.28
55418;BME280;41287;47.554;7.844;2023-10-13T03:06:34;98119.31;;;21.27;52.74
55418;BME280;41287;47.554;7.844;2023-10-13T03:09:06;98118.50;;;21.27;52.52
55418;BME280;41287;47.554;7.844;2023-10-13T03:11:44;98110.00;;;21.28;52.56
55418;BME280;41287;47.554;7.844;2023-10-13T03:14:16;98105.69;;;21.27;52.39
55418;BME280;41287;47.554;7.844;2023-10-13T03:17:01;98097.84;;;21.26;52.57
55418;BME280;41287;47.554;7.844;2023-10-13T03:19:28;98101.03;;;21.28;52.68
55418;BME280;41287;47.554;7.844;2023-10-13T03:21:58;98099.44;;;21.27;52.36
55418;BME280;41287;47.554;7.844;2023-10-13T03:24:33;98093.19;;;21.26;52.45
55418;BME280;41287;47.554;7.844;2023-10-13T03:27:01;98091.25;;;21.27;52.49
55418;BME280;41287;47.554;7.844;2023-10-13T03:29:44;98090.47;;;21.26;52.47
55418;BME280;41287;47.554;7.844;2023-10-13T03:32:15;98098.66;;;21.26;52.50
55418;BME280;41287;47.554;7.844;2023-10-13T03:34:45;98087.75;;;21.26;52.35
55418;BME280;41287;47.554;7.844;2023-10-13T03:37:28;98089.34;;;21.27;52.32
55418;BME280;41287;47.554;7.844;2023-10-13T03:40:04;98077.63;;;21.27;52.42
55418;BME280;41287;47.554;7.844;2023-10-13T03:43:00;98081.16;;;21.27;52.31
55418;BME280;41287;47.554;7.844;2023-10-13T03:48:15;98078.44;;;21.27;52.52
55418;BME280;41287;47.554;7.844;2023-10-13T03:50:52;98077.63;;;21.27;52.62
55418;BME280;41287;47.554;7.844;2023-10-13T03:53:38;98077.63;;;21.27;52.29
55418;BME280;41287;47.554;7.844;2023-10-13T03:56:18;98067.88;;;21.26;52.58
55418;BME280;41287;47.554;7.844;2023-10-13T03:58:57;98069.81;;;21.25;52.55
55418;BME280;41287;47.554;7.844;2023-10-13T04:01:29;98072.19;;;21.27;52.57
55418;BME280;41287;47.554;7.844;2023-10-13T04:04:09;98062.06;;;21.27;52.33
55418;BME280;41287;47.554;7.844;2023-10-13T04:06:39;98061.28;;;21.27;52.42
55418;BME280;41287;47.554;7.844;2023-10-13T04:09:17;98064.34;;;21.25;52.71
55418;BME280;41287;47.554;7.844;2023-10-13T04:14:29;98063.22;;;21.26;52.45
55418;BME280;41287;47.554;7.844;2023-10-13T04:17:10;98060.50;;;21.26;52.36
55418;BME280;41287;47.554;7.844;2023-10-13T04:19:44;98061.28;;;21.27;52.19
55418;BME280;41287;47.554;7.844;2023-10-13T04:22:28;98060.50;;;21.26;52.61
55418;BME280;41287;47.554;7.844;2023-10-13T04:27:58;98055.03;;;21.26;52.60
55418;BME280;41287;47.554;7.844;2023-10-13T04:33:26;98055.03;;;21.26;52.66
55418;BME280;41287;47.554;7.844;2023-10-13T04:36:12;98065.16;;;21.26;52.63
55418;BME280;41287;47.554;7.844;2023-10-13T04:38:43;98056.97;;;21.26;52.40
55418;BME280;41287;47.554;7.844;2023-10-13T04:44:23;98059.34;;;21.27;52.60
55418;BME280;41287;47.554;7.844;2023-10-13T04:47:11;98063.22;;;21.26;52.64
55418;BME280;41287;47.554;7.844;2023-10-13T04:49:46;98048.00;;;21.25;52.60
55418;BME280;41287;47.554;7.844;2023-10-13T04:52:15;98048.78;;;21.26;52.50
55418;BME280;41287;47.554;7.844;2023-10-13T04:55:00;98048.00;;;21.25;52.44
55418;BME280;41287;47.554;7.844;2023-10-13T04:57:49;98041.41;;;21.26;52.36
55418;BME280;41287;47.554;7.844;2023-10-13T05:00:25;98041.41;;;21.26;52.38
55418;BME280;41287;47.554;7.844;2023-10-13T05:03:30;98048.78;;;21.26;52.30
55418;BME280;41287;47.554;7.844;2023-10-13T05:06:19;98044.13;;;21.26;52.38
55418;BME280;41287;47.554;7.844;2023-10-13T05:09:04;98048.78;;;21.26;52.42
55418;BME280;41287;47.554;7.844;2023-10-13T05:11:48;98053.44;;;21.25;52.54
55418;BME280;41287;47.554;7.844;2023-10-13T05:14:32;98045.28;;;21.25;52.47
55418;BME280;41287;47.554;7.844;2023-10-13T05:17:35;98044.13;;;21.26;52.31
55418;BME280;41287;47.554;7.844;2023-10-13T05:20:21;98037.91;;;21.26;52.64
55418;BME280;41287;47.554;7.844;2023-10-13T05:23:07;98038.69;;;21.26;52.47
55418;BME280;41287;47.554;7.844;2023-10-13T05:25:52;98034.38;;;21.25;52.50
55418;BME280;41287;47.554;7.844;2023-10-13T05:28:36;98037.09;;;21.25;52.50
55418;BME280;41287;47.554;7.844;2023-10-13T05:31:20;98037.09;;;21.25;52.36
55418;BME280;41287;47.554;7.844;2023-10-13T05:34:04;98044.13;;;21.26;52.61
55418;BME280;41287;47.554;7.844;2023-10-13T05:36:48;98036.31;;;21.25;52.58
55418;BME280;41287;47.554;7.844;2023-10-13T05:39:31;98042.56;;;21.25;52.60
55418;BME280;41287;47.554;7.844;2023-10-13T05:42:16;98035.50;;;21.24;52.51
55418;BME280;41287;47.554;7.844;2023-10-13T05:44:59;98040.63;;;21.26;52.57
55418;BME280;41287;47.554;7.844;2023-10-13T05:47:43;98036.31;;;21.25;52.62
55418;BME280;41287;47.554;7.844;2023-10-13T05:50:09;98030.84;;;21.25;52.64
55418;BME280;41287;47.554;7.844;2023-10-13T05:53:00;98045.28;;;21.25;52.62
55418;BME280;41287;47.554;7.844;2023-10-13T05:55:27;98043.34;;;21.26;52.61
55418;BME280;41287;47.554;7.844;2023-10-13T05:58:13;98036.31;;;21.25;52.64
55418;BME280;41287;47.554;7.844;2023-10-13T06:00:59;98041.75;;;21.25;52.56
55418;BME280;41287;47.554;7.844;2023-10-13T06:03:44;98035.50;;;21.24;52.30
55418;BME280;41287;47.554;7.844;2023-10-13T06:06:30;98050.72;;;21.25;52.55
55418;BME280;41287;47.554;7.844;2023-10-13T06:09:14;98045.28;;;21.25;52.42
55418;BME280;41287;47.554;7.844;2023-10-13T06:11:58;98042.56;;;21.25;52.48
55418;BME280;41287;47.554;7.844;2023-10-13T06:14:46;98048.34;;;21.24;52.33
55418;BME280;41287;47.554;7.844;2023-10-13T06:17:29;98054.59;;;21.24;52.43
55418;BME280;41287;47.554;7.844;2023-10-13T06:20:15;98046.41;;;21.24;52.51
55418;BME280;41287;47.554;7.844;2023-10-13T06:23:01;98052.66;;;21.25;52.64
55418;BME280;41287;47.554;7.844;2023-10-13T06:25:53;98055.72;;;21.23;52.59
55418;BME280;41287;47.554;7.844;2023-10-13T06:28:39;98055.38;;;21.25;52.66
55418;BME280;41287;47.554;7.844;2023-10-13T06:31:09;98051.06;;;21.24;52.58
55418;BME280;41287;47.554;7.844;2023-10-13T06:33:46;98051.88;;;21.24;52.71
55418;BME280;41287;47.554;7.844;2023-10-13T06:36:13;98051.06;;;21.24;52.64
55418;BME280;41287;47.554;7.844;2023-10-13T06:38:38;98054.59;;;21.24;52.50
55418;BME280;41287;47.554;7.844;2023-10-13T06:41:05;98056.19;;;21.25;52.63
55418;BME280;41287;47.554;7.844;2023-10-13T06:43:35;98060.03;;;21.24;52.45
55418;BME280;41287;47.554;7.844;2023-10-13T06:46:07;98049.94;;;21.25;52.48
55418;BME280;41287;47.554;7.844;2023-10-13T06:48:39;98053.44;;;21.25;52.48
55418;BME280;41287;47.554;7.844;2023-10-13T06:51:05;98055.38;;;21.25;52.59
55418;BME280;41287;47.554;7.844;2023-10-13T06:53:44;98054.25;;;21.26;52.63
55418;BME280;41287;47.554;7.844;2023-10-13T06:56:13;98056.97;;;21.26;52.57
55418;BME280;41287;47.554;7.844;2023-10-13T06:58:44;98058.91;;;21.25;52.50
55418;BME280;41287;47.554;7.844;2023-10-13T07:01:12;98060.84;;;21.25;52.42
55418;BME280;41287;47.554;7.844;2023-10-13T07:03:44;98053.44;;;21.25;52.46
55418;BME280;41287;47.554;7.844;2023-10-13T07:06:18;98060.84;;;21.25;52.36
55418;BME280;41287;47.554;7.844;2023-10-13T07:08:46;98052.66;;;21.25;52.46
55418;BME280;41287;47.554;7.844;2023-10-13T07:11:23;98058.09;;;21.25;52.50
55418;BME280;41287;47.554;7.844;2023-10-13T07:14:01;98055.38;;;21.25;52.57
55418;BME280;41287;47.554;7.844;2023-10-13T07:16:36;98064.34;;;21.25;52.42
55418;BME280;41287;47.554;7.844;2023-10-13T07:19:03;98061.63;;;21.25;52.49
55418;BME280;41287;47.554;7.844;2023-10-13T07:21:33;98065.50;;;21.24;52.62
55418;BME280;41287;47.554;7.844;2023-10-13T07:23:59;98068.66;;;21.26;52.53
55418;BME280;41287;47.554;7.844;2023-10-13T07:26:37;98075.25;;;21.25;52.36
55418;BME280;41287;47.554;7.844;2023-10-13T07:29:11;98066.28;;;21.25;52.57
55418;BME280;41287;47.554;7.844;2023-10-13T07:31:38;98065.16;;;21.26;52.57
55418;BME280;41287;47.554;7.844;2023-10-13T07:34:06;98072.53;;;21.25;52.40
55418;BME280;41287;47.554;7.844;2023-10-13T07:36:39;98067.88;;;21.26;52.40
55418;BME280;41287;47.554;7.844;2023-10-13T07:39:05;98068.22;;;21.24;52.56
55418;BME280;41287;47.554;7.844;2023-10-13T07:41:50;98054.59;;;21.24;52.56
55418;BME280;41287;47.554;7.844;2023-10-13T07:44:31;98058.09;;;21.25;52.34
55418;BME280;41287;47.554;7.844;2023-10-13T07:47:00;98063.56;;;21.25;52.35
55418;BME280;41287;47.554;7.844;2023-10-13T07:49:32;98061.19;;;21.23;52.37
55418;BME280;41287;47.554;7.844;2023-10-13T07:52:02;98055.38;;;21.25;52.70
55418;BME280;41287;47.554;7.844;2023-10-13T07:54:50;98055.38;;;21.25;52.55
55418;BME280;41287;47.554;7.844;2023-10-13T07:57:24;98060.03;;;21.24;52.36
55418;BME280;41287;47.554;7.844;2023-10-13T07:59:56;98054.59;;;21.24;52.55
55418;BME280;41287;47.554;7.844;2023-10-13T08:02:37;98054.59;;;21.24;52.55
55418;BME280;41287;47.554;7.844;2023-10-13T08:05:18;98054.59;;;21.24;52.56
55418;BME280;41287;47.554;7.844;2023-10-13T08:08:05;98051.88;;;21.24;52.51
55418;BME280;41287;47.554;7.844;2023-10-13T08:10:41;98052.66;;;21.25;52.50
55418;BME280;41287;47.554;7.844;2023-10-13T08:13:11;98046.41;;;21.24;52.45
55418;BME280;41287;47.554;7.844;2023-10-13T08:15:41;98046.41;;;21.24;52.63
55418;BME280;41287;47.554;7.844;2023-10-13T08:18:13;98042.09;;;21.23;52.58
55418;BME280;41287;47.554;7.844;2023-10-13T08:21:00;98038.25;;;21.24;52.38
55418;BME280;41287;47.554;7.844;2023-10-13T08:23:31;98030.34;;;21.19;52.77
55418;BME280;41287;47.554;7.844;2023-10-13T08:26:24;98033.59;;;21.25;52.46
55418;BME280;41287;47.554;7.844;2023-10-13T08:29:03;98023.81;;;21.24;52.41
55418;BME280;41287;47.554;7.844;2023-10-13T08:31:51;98025.75;;;21.23;52.42
55418;BME280;41287;47.554;7.844;2023-10-13T08:34:32;98027.69;;;21.23;52.58
55418;BME280;41287;47.554;7.844;2023-10-13T08:37:05;98030.06;;;21.24;52.52
55418;BME280;41287;47.554;7.844;2023-10-13T08:39:57;98031.19;;;21.23;52.51
55418;BME280;41287;47.554;7.844;2023-10-13T08:42:32;98019.88;;;21.21;52.42
55418;BME280;41287;47.554;7.844;2023-10-13T08:45:13;98016.00;;;21.22;52.61
55418;BME280;41287;47.554;7.844;2023-10-13T08:47:54;98021.44;;;21.22;52.42
55418;BME280;41287;47.554;7.844;2023-10-13T08:50:44;98024.97;;;21.23;52.62
55418;BME280;41287;47.554;7.844;2023-10-13T08:53:27;98024.53;;;21.21;52.63
55418;BME280;41287;47.554;7.844;2023-10-13T08:56:01;98024.16;;;21.22;52.64
55418;BME280;41287;47.554;7.844;2023-10-13T08:58:41;98018.72;;;21.22;52.71
55418;BME280;41287;47.554;7.844;2023-10-13T09:01:26;98013.63;;;21.21;52.52
55418;BME280;41287;47.554;7.844;2023-10-13T09:04:15;98010.53;;;21.22;52.70
55418;BME280;41287;47.554;7.844;2023-10-13T09:09:13;98001.22;;;21.23;52.56
55418;BME280;41287;47.554;7.844;2023-10-13T09:11:54;97996.56;;;21.24;52.58
55418;BME280;41287;47.554;7.844;2023-10-13T09:14:36;97996.16;;;21.22;52.33
55418;BME280;41287;47.554;7.844;2023-10-13T09:17:12;97989.53;;;21.23;52.51
55418;BME280;41287;47.554;7.844;2023-10-13T09:19:47;97994.19;;;21.22;52.43
55418;BME280;41287;47.554;7.844;2023-10-13T09:22:23;97991.03;;;21.20;52.54
55418;BME280;41287;47.554;7.844;2023-10-13T09:25:02;97986.00;;;21.22;52.41
55418;BME280;41287;47.554;7.844;2023-10-13T09:27:29;97983.28;;;21.22;52.52
55418;BME280;41287;47.554;7.844;2023-10-13T09:30:01;97989.91;;;21.21;52.53
55418;BME280;41287;47.554;7.844;2023-10-13T09:33:01;97989.47;;;21.19;52.58
55418;BME280;41287;47.554;7.844;2023-10-13T09:35:28;97982.53;;;21.22;52.68
55418;BME280;41287;47.554;7.844;2023-10-13T09:37:53;97984.88;;;21.23;52.52
55418;BME280;41287;47.554;7.844;2023-10-13T09:40:22;97970.47;;;21.23;52.70
55418;BME280;41287;47.554;7.844;2023-10-13T09:43:05;97971.25;;;21.23;52.45
55418;BME280;41287;47.554;7.844;2023-10-13T09:45:33;97973.19;;;21.23;52.63
55418;BME280;41287;47.554;7.844;2023-10-13T09:48:04;97966.94;;;21.22;52.64
55418;BME280;41287;47.554;7.844;2023-10-13T09:50:43;97962.28;;;21.23;52.57
55418;BME280;41287;47.554;7.844;2023-10-13T09:53:11;97954.91;;;21.23;52.71
55418;BME280;41287;47.554;7.844;2023-10-13T09:55:42;97952.56;;;21.22;52.47
55418;BME280;41287;47.554;7.844;2023-10-13T09:58:12;97950.59;;;21.22;52.50
55418;BME280;41287;47.554;7.844;2023-10-13T10:00:54;97950.97;;;21.21;52.65
55418;BME280;41287;47.554;7.844;2023-10-13T10:03:22;97952.44;;;21.18;52.56
55418;BME280;41287;47.554;7.844;2023-10-13T10:06:01;97942.06;;;21.24;52.65
55418;BME280;41287;47.554;7.844;2023-10-13T10:08:31;97946.72;;;21.23;52.57
55418;BME280;41287;47.554;7.844;2023-10-13T10:11:21;97939.28;;;21.20;52.47
55418;BME280;41287;47.554;7.844;2023-10-13T10:16:43;97926.78;;;21.19;52.66
55418;BME280;41287;47.554;7.844;2023-10-13T10:19:14;97930.75;;;21.22;52.51
55418;BME280;41287;47.554;7.844;2023-10-13T10:21:40;97921.78;;;21.21;52.56
55418;BME280;41287;47.554;7.844;2023-10-13T10:24:16;97918.63;;;21.19;52.55
55418;BME280;41287;47.554;7.844;2023-10-13T10:27:01;97919.06;;;21.21;52.60
55418;BME280;41287;47.554;7.844;2023-10-13T10:29:31;97917.13;;;21.22;52.58
55418;BME280;41287;47.554;7.844;2023-10-13T10:31:57;97915.53;;;21.21;52.57
55418;BME280;41287;47.554;7.844;2023-10-13T10:34:30;97917.47;;;21.20;52.55
55418;BME280;41287;47.554;7.844;2023-10-13T10:36:59;97907.00;;;21.22;52.54
55418;BME280;41287;47.554;7.844;2023-10-13T10:39:37;97903.06;;;21.20;52.47
55418;BME280;41287;47.554;7.844;2023-10-13T10:42:14;97902.72;;;21.21;52.44
55418;BME280;41287;47.554;7.844;2023-10-13T10:44:41;97899.59;;;21.23;52.49
55418;BME280;41287;47.554;7.844;2023-10-13T10:47:14;97900.00;;;21.21;52.38
55418;BME280;41287;47.554;7.844;2023-10-13T10:49:46;97883.63;;;21.21;52.53
55418;BME280;41287;47.554;7.844;2023-10-13T10:52:16;97890.22;;;21.20;52.55
55418;BME280;41287;47.554;7.844;2023-10-13T10:54:44;97889.88;;;21.22;52.80
55418;BME280;41287;47.554;7.844;2023-10-13T10:57:16;97886.34;;;21.21;52.72
55418;BME280;41287;47.554;7.844;2023-10-13T10:59:45;97876.25;;;21.22;52.51
55418;BME280;41287;47.554;7.844;2023-10-13T11:02:11;97877.41;;;21.21;52.57
55418;BME280;41287;47.554;7.844;2023-10-13T11:04:42;97874.28;;;21.22;52.52
55418;BME280;41287;47.554;7.844;2023-10-13T11:07:23;97873.53;;;21.22;52.66
55418;BME280;41287;47.554;7.844;2023-10-13T11:09:49;97870.81;;;21.22;52.68
55418;BME280;41287;47.554;7.844;2023-10-13T11:12:19;97861.84;;;21.21;52.56
55418;BME280;41287;47.554;7.844;2023-10-13T11:15:05;97854.00;;;21.20;52.42
55418;BME280;41287;47.554;7.844;2023-10-13T11:17:58;97844.31;;;21.22;52.66
55418;BME280;41287;47.554;7.844;2023-10-13T11:20:26;97838.88;;;21.22;52.41
55418;BME280;41287;47.554;7.844;2023-10-13T11:22:52;97837.31;;;21.21;52.70
55418;BME280;41287;47.554;7.844;2023-10-13T11:25:25;97824.81;;;21.20;52.50
55418;BME280;41287;47.554;7.844;2023-10-13T11:28:10;97828.69;;;21.19;52.54
55418;BME280;41287;47.554;7.844;2023-10-13T11:30:43;97827.19;;;21.22;52.39
55418;BME280;41287;47.554;7.844;2023-10-13T11:33:13;97814.34;;;21.22;52.50
55418;BME280;41287;47.554;7.844;2023-10-13T11:35:43;97814.72;;;21.21;52.70
55418;BME280;41287;47.554;7.844;2023-10-13T11:38:15;97806.53;;;21.21;52.49
55418;BME280;41287;47.554;7.844;2023-10-13T11:40:41;97817.06;;;21.22;52.47
55418;BME280;41287;47.554;7.844;2023-10-13T11:43:24;97812.78;;;21.21;52.49
55418;BME280;41287;47.554;7.844;2023-10-13T11:45:50;97813.59;;;21.22;52.33
55418;BME280;41287;47.554;7.844;2023-10-13T11:48:38;97809.69;;;21.23;52.48
55418;BME280;41287;47.554;7.844;2023-10-13T11:51:11;97794.84;;;21.20;52.67
55418;BME280;41287;47.554;7.844;2023-10-13T11:53:46;97796.44;;;21.21;52.50
55418;BME280;41287;47.554;7.844;2023-10-13T11:56:17;97792.91;;;21.21;52.42
55418;BME280;41287;47.554;7.844;2023-10-13T11:58:46;97791.00;;;21.21;52.56
55418;BME280;41287;47.554;7.844;2023-10-13T12:01:14;97779.28;;;21.21;52.68
55418;BME280;41287;47.554;7.844;2023-10-13T12:06:25;97780.88;;;21.22;52.54
55418;BME280;41287;47.554;7.844;2023-10-13T12:09:04;97771.91;;;21.21;52.58
55418;BME280;41287;47.554;7.844;2023-10-13T12:11:42;97775.44;;;21.22;52.49
55418;BME280;41287;47.554;7.844;2023-10-13T12:14:08;97763.75;;;21.21;52.56
55418;BME280;41287;47.554;7.844;2023-10-13T12:16:50;97760.56;;;21.19;52.48
55418;BME280;41287;47.554;7.844;2023-10-13T12:21:52;97756.72;;;21.20;52.69
55418;BME280;41287;47.554;7.844;2023-10-13T12:24:22;97735.69;;;21.21;52.45
55418;BME280;41287;47.554;7.844;2023-10-13T12:26:56;97739.56;;;21.20;52.77
55418;BME280;41287;47.554;7.844;2023-10-13T12:29:25;97733.75;;;21.21;52.66
55418;BME280;41287;47.554;7.844;2023-10-13T12:31:57;97720.16;;;21.21;52.63
55418;BME280;41287;47.554;7.844;2023-10-13T12:34:38;97720.94;;;21.22;52.46
55418;BME280;41287;47.554;7.844;2023-10-13T12:37:22;97723.66;;;21.22;52.60
55418;BME280;41287;47.554;7.844;2023-10-13T12:40:22;97718.13;;;21.18;52.52
55418;BME280;41287;47.554;7.844;2023-10-13T12:43:06;97713.13;;;21.20;52.47
55418;BME280;41287;47.554;7.844;2023-10-13T12:45:50;97720.16;;;21.21;52.45
55418;BME280;41287;47.554;7.844;2023-10-13T12:48:36;97706.50;;;21.21;52.61
55418;BME280;41287;47.554;7.844;2023-10-13T12:51:22;97713.13;;;21.20;52.66
55418;BME280;41287;47.554;7.844;2023-10-13T12:53:53;97699.47;;;21.20;52.51
55418;BME280;41287;47.554;7.844;2023-10-13T12:56:21;97696.75;;;21.20;52.60
55418;BME280;41287;47.554;7.844;2023-10-13T12:58:53;97688.59;;;21.20;52.78
55418;BME280;41287;47.554;7.844;2023-10-13T13:01:21;97683.94;;;21.21;52.70
55418;BME280;41287;47.554;7.844;2023-10-13T13:03:51;97688.22;;;21.22;52.67
55418;BME280;41287;47.554;7.844;2023-10-13T13:06:22;97681.22;;;21.21;52.61
55418;BME280;41287;47.554;7.844;2023-10-13T13:08:57;97688.22;;;21.22;52.58
55418;BME280;41287;47.554;7.844;2023-10-13T13:11:23;97676.53;;;21.21;52.43
55418;BME280;41287;47.554;7.844;2023-10-13T13:13:49;97674.59;;;21.22;52.68
55418;BME280;41287;47.554;7.844;2023-10-13T13:16:17;97666.44;;;21.22;52.52
55418;BME280;41287;47.554;7.844;2023-10-13T13:18:47;97669.91;;;21.22;52.65
55418;BME280;41287;47.554;7.844;2023-10-13T13:21:12;97661.75;;;21.22;52.52
55418;BME280;41287;47.554;7.844;2023-10-13T13:23:45;97660.19;;;21.21;52.63
55418;BME280;41287;47.554;7.844;2023-10-13T13:26:11;97661.75;;;21.22;52.67
55418;BME280;41287;47.554;7.844;2023-10-13T13:28:43;97659.03;;;21.22;52.67
55418;BME280;41287;47.554;7.844;2023-10-13T13:31:11;97657.47;;;21.21;52.52
55418;BME280;41287;47.554;7.844;2023-10-13T13:33:40;97648.13;;;21.22;52.66
55418;BME280;41287;47.554;7.844;2023-10-13T13:36:08;97645.41;;;21.22;52.67
55418;BME280;41287;47.554;7.844;2023-10-13T13:38:39;97641.53;;;21.23;52.62
55418;BME280;41287;47.554;7.844;2023-10-13T13:41:11;97634.50;;;21.22;52.54
55418;BME280;41287;47.554;7.844;2023-10-13T13:43:40;97634.50;;;21.22;52.77
55418;BME280;41287;47.554;7.844;2023-10-13T13:46:21;97632.16;;;21.21;52.45
55418;BME280;41287;47.554;7.844;2023-10-13T13:48:55;97625.19;;;21.23;52.48
55418;BME280;41287;47.554;7.844;2023-10-13T13:51:26;97621.66;;;21.23;52.66
55418;BME280;41287;47.554;7.844;2023-10-13T13:53:53;97623.59;;;21.22;52.46
55418;BME280;41287;47.554;7.844;2023-10-13T13:56:21;97621.66;;;21.23;52.55
55418;BME280;41287;47.554;7.844;2023-10-13T13:58:51;97616.22;;;21.23;52.39
55418;BME280;41287;47.554;7.844;2023-10-13T14:01:16;97613.88;;;21.21;52.50
55418;BME280;41287;47.554;7.844;2023-10-13T14:03:50;97608.47;;;21.25;52.69